Terminal Aerodrome Forecast
Issued by NWS

Home | Current Version | Previous Version | Text Only | Print | Product List | Glossary On
Versions: 1 2 3 4 5 6 7 8 9 10 11 12 13 14 15 16 17 18 19 20 21 22
000
FTUS44 KOHX 030300 AAA
TAFCKV
TAF AMD
KCKV 030341Z 0304/0324 08005KT P6SM OVC040
     FM030900 VRB03KT P6SM VCSH OVC015
     FM031300 17006KT 4SM BR VCSH OVC007
     FM031800 21010G18KT 3SM -SHRA BR OVC007=

USA.gov is the U.S. government's official web portal to all federal, state and local government web resources and services.